createdAt,value
2022-12-13T00:13:43.449Z,14.20
2022-12-13T00:28:43.615Z,12.00
2022-12-13T00:43:44.249Z,13.80
2022-12-13T00:58:50.150Z,12.10
2022-12-13T01:13:49.470Z,14.30
2022-12-13T01:28:50.061Z,12.90
2022-12-13T01:43:50.183Z,13.20
2022-12-13T01:58:50.893Z,12.60
2022-12-13T02:13:51.153Z,12.90
2022-12-13T02:28:52.288Z,12.00
2022-12-13T02:43:52.922Z,13.50
2022-12-13T02:58:58.220Z,13.80
2022-12-13T03:13:58.406Z,14.90
2022-12-13T03:28:58.460Z,15.20
2022-12-13T03:43:58.567Z,15.90
2022-12-13T03:58:58.722Z,15.10
2022-12-13T04:13:58.810Z,13.10
2022-12-13T04:28:58.943Z,14.80
2022-12-13T04:43:59.679Z,12.90
2022-12-13T04:59:00.180Z,14.90
2022-12-13T05:14:00.459Z,15.50
2022-12-13T05:29:01.002Z,14.20
2022-12-13T05:44:01.096Z,13.90
2022-12-13T05:59:01.754Z,13.90
2022-12-13T06:14:02.101Z,13.50
2022-12-13T06:29:02.658Z,14.10
2022-12-13T06:44:02.756Z,16.20
2022-12-13T06:59:02.887Z,14.30
2022-12-13T07:14:03.007Z,15.90
2022-12-13T07:29:03.133Z,16.20
2022-12-13T07:44:03.234Z,15.90
2022-12-13T07:59:03.865Z,16.00
2022-12-13T08:14:03.986Z,21.40
2022-12-13T08:29:03.881Z,17.10
2022-12-13T08:44:03.922Z,20.00
2022-12-13T08:59:04.135Z,19.00
2022-12-13T09:14:05.186Z,36.10
2022-12-13T09:29:11.076Z,39.90
2022-12-13T09:44:32.022Z,16.40
2022-12-13T09:59:15.036Z,18.50
2022-12-13T10:14:15.181Z,18.90
2022-12-13T10:29:15.265Z,15.70
2022-12-13T10:44:15.353Z,15.10
2022-12-13T10:59:17.646Z,15.20
2022-12-13T11:14:17.780Z,16.10
2022-12-13T11:29:17.833Z,17.40
2022-12-13T11:44:18.103Z,13.90
2022-12-13T11:59:25.839Z,12.90
2022-12-13T12:14:23.820Z,12.30
2022-12-13T12:29:24.151Z,13.80
2022-12-13T12:44:30.521Z,13.40
2022-12-13T12:59:30.958Z,12.60
2022-12-13T13:14:31.091Z,17.20
2022-12-13T13:29:31.131Z,16.70
2022-12-13T13:44:31.264Z,13.40
2022-12-13T13:59:31.386Z,16.60
2022-12-13T14:14:32.786Z,17.40
2022-12-13T14:29:38.538Z,15.30
2022-12-13T14:44:39.121Z,14.50
2022-12-13T14:59:39.777Z,17.00
2022-12-13T15:14:39.822Z,15.60
2022-12-13T15:29:39.984Z,16.10
2022-12-13T15:44:40.063Z,16.40
2022-12-13T15:59:40.578Z,17.60
2022-12-13T16:14:40.624Z,14.80
2022-12-13T16:29:46.231Z,14.40
2022-12-13T16:44:46.754Z,16.40
2022-12-13T16:59:47.699Z,18.10
2022-12-13T17:14:48.208Z,20.20
2022-12-13T17:29:48.924Z,20.00
2022-12-13T17:44:49.152Z,23.40
2022-12-13T17:59:49.196Z,25.00
2022-12-13T18:14:49.787Z,22.90
2022-12-13T18:29:55.384Z,22.80
2022-12-13T18:44:55.153Z,23.00
2022-12-13T18:59:55.724Z,24.80
2022-12-13T19:14:56.338Z,21.60
2022-12-13T19:29:56.463Z,19.30
2022-12-13T19:44:57.675Z,20.00
2022-12-13T19:59:58.277Z,18.50
2022-12-13T20:14:58.421Z,21.20
2022-12-13T20:29:58.620Z,19.80
2022-12-13T20:44:59.271Z,23.30
2022-12-13T20:59:59.328Z,25.10
2022-12-13T21:14:59.980Z,26.30
2022-12-13T21:30:00.282Z,24.40
2022-12-13T21:45:02.465Z,26.00
2022-12-13T22:00:03.064Z,23.30
2022-12-13T22:15:03.381Z,23.10
2022-12-13T22:30:03.402Z,22.80
2022-12-13T22:45:04.031Z,22.60
2022-12-13T23:00:04.204Z,23.80
2022-12-13T23:15:04.261Z,20.40
2022-12-13T23:30:05.534Z,20.10
2022-12-13T23:45:06.096Z,20.00
